createdAt,value
2022-09-07T00:01:51.048Z,2.33
2022-09-07T00:04:18.876Z,1.40
2022-09-07T00:06:47.030Z,1.67
2022-09-07T00:09:15.893Z,1.63
2022-09-07T00:11:43.481Z,1.30
2022-09-07T00:14:11.073Z,1.42
2022-09-07T00:16:38.697Z,1.13
2022-09-07T00:19:06.287Z,1.40
2022-09-07T00:21:34.062Z,1.15
2022-09-07T00:24:01.592Z,0.98
2022-09-07T00:26:32.181Z,1.02
2022-09-07T00:29:01.816Z,1.00
2022-09-07T00:31:31.380Z,1.05
2022-09-07T00:34:01.871Z,1.30
2022-09-07T00:36:30.707Z,1.25
2022-09-07T00:38:59.483Z,1.10
2022-09-07T00:41:27.978Z,1.02
2022-09-07T00:43:58.958Z,1.25
2022-09-07T00:46:29.007Z,1.30
2022-09-07T00:49:01.574Z,2.00
2022-09-07T00:51:33.409Z,1.50
2022-09-07T00:54:06.765Z,1.55
2022-09-07T00:56:37.634Z,1.42
2022-09-07T00:59:07.283Z,1.60
2022-09-07T01:01:35.468Z,1.73
2022-09-07T01:04:04.597Z,1.45
2022-09-07T01:06:34.417Z,1.60
2022-09-07T01:09:04.989Z,1.48
2022-09-07T01:11:34.730Z,1.95
2022-09-07T01:14:04.417Z,1.92
2022-09-07T01:16:55.842Z,1.48
2022-09-07T01:20:10.473Z,1.65
2022-09-07T01:22:55.927Z,1.90
2022-09-07T01:25:34.815Z,1.73
2022-09-07T01:28:13.214Z,1.90
2022-09-07T01:30:46.376Z,1.95
2022-09-07T01:33:30.982Z,2.08
2022-09-07T01:36:06.884Z,1.60
2022-09-07T01:38:42.767Z,1.90
2022-09-07T01:41:17.630Z,2.05
2022-09-07T01:46:23.607Z,1.42
2022-09-07T01:48:55.023Z,1.40
2022-09-07T01:51:28.985Z,1.20
2022-09-07T01:54:00.201Z,1.33
2022-09-07T01:56:34.312Z,1.13
2022-09-07T01:59:05.857Z,1.50
2022-09-07T02:01:39.663Z,1.35
2022-09-07T02:04:11.708Z,1.40
2022-09-07T02:06:46.478Z,1.77
2022-09-07T02:09:19.800Z,1.30
2022-09-07T02:11:50.055Z,1.30
2022-09-07T02:14:23.559Z,1.52
2022-09-07T02:16:56.895Z,1.63
2022-09-07T02:19:27.952Z,1.50
2022-09-07T02:22:01.622Z,1.70
2022-09-07T02:24:34.085Z,1.30
2022-09-07T02:27:06.502Z,1.20
2022-09-07T02:29:35.540Z,1.40
2022-09-07T02:32:03.598Z,1.60
2022-09-07T02:34:32.188Z,1.65
2022-09-07T02:37:02.645Z,1.30
2022-09-07T02:39:30.436Z,1.55
2022-09-07T02:41:58.109Z,1.65
2022-09-07T02:44:29.061Z,1.40
2022-09-07T02:47:12.274Z,1.58
2022-09-07T02:49:55.314Z,1.60
2022-09-07T02:52:32.980Z,1.70
2022-09-07T02:55:10.900Z,1.48
2022-09-07T02:57:47.655Z,1.65
2022-09-07T03:00:19.196Z,1.60
2022-09-07T03:02:56.532Z,1.58
2022-09-07T03:05:26.960Z,1.73
2022-09-07T03:08:00.878Z,1.40
2022-09-07T03:10:29.351Z,1.70
2022-09-07T03:12:56.906Z,1.40
2022-09-07T03:15:26.677Z,1.60
2022-09-07T03:17:55.713Z,1.27
2022-09-07T03:20:24.094Z,1.52
2022-09-07T03:22:53.100Z,1.50
2022-09-07T03:25:23.034Z,1.70
2022-09-07T03:27:50.604Z,2.20
2022-09-07T03:30:18.440Z,1.63
2022-09-07T03:32:45.956Z,1.92
2022-09-07T03:35:15.159Z,1.88
2022-09-07T03:37:42.696Z,1.70
2022-09-07T03:40:13.134Z,1.83
2022-09-07T03:42:41.345Z,1.60
2022-09-07T03:45:10.358Z,1.90
2022-09-07T03:47:38.632Z,1.73
2022-09-07T03:50:07.589Z,2.00
2022-09-07T03:52:36.823Z,1.80
2022-09-07T03:55:05.033Z,1.88
2022-09-07T03:57:32.567Z,1.85
2022-09-07T04:00:00.184Z,2.28
2022-09-07T04:02:27.781Z,2.15
2022-09-07T04:04:55.371Z,2.00
2022-09-07T04:07:22.927Z,2.30
2022-09-07T04:09:52.234Z,1.92
2022-09-07T04:12:19.747Z,2.40
2022-09-07T04:14:47.306Z,1.92
2022-09-07T04:17:14.886Z,1.80
2022-09-07T04:19:42.505Z,2.30
2022-09-07T04:22:10.044Z,1.75
2022-09-07T04:24:37.593Z,2.22
2022-09-07T04:27:06.623Z,2.35
2022-09-07T04:29:34.206Z,2.20
2022-09-07T04:32:01.829Z,2.92
2022-09-07T04:34:29.672Z,2.20
2022-09-07T04:36:57.190Z,2.28
2022-09-07T04:39:24.794Z,2.03
2022-09-07T04:41:52.326Z,1.75
2022-09-07T04:44:21.244Z,2.03
2022-09-07T04:46:48.808Z,1.80
2022-09-07T04:49:16.389Z,1.80
2022-09-07T04:51:44.297Z,1.90
2022-09-07T04:54:12.401Z,1.60
2022-09-07T04:56:39.990Z,1.90
2022-09-07T04:59:07.622Z,1.90
2022-09-07T05:01:36.575Z,2.10
2022-09-07T05:04:05.070Z,1.80
2022-09-07T05:06:32.724Z,1.75
2022-09-07T05:09:00.558Z,1.67
2022-09-07T05:11:29.803Z,1.80
2022-09-07T05:13:58.030Z,1.90
2022-09-07T05:16:26.121Z,2.05
2022-09-07T05:18:57.052Z,2.10
2022-09-07T05:21:26.661Z,1.92
2022-09-07T05:23:56.823Z,1.90
2022-09-07T05:26:26.784Z,2.20
2022-09-07T05:31:42.473Z,2.00
2022-09-07T05:36:59.155Z,2.00
2022-09-07T05:39:27.120Z,1.83
2022-09-07T05:41:54.753Z,2.35
2022-09-07T05:47:10.684Z,2.00
2022-09-07T05:49:39.648Z,2.10
2022-09-07T05:52:07.245Z,2.10
2022-09-07T05:54:34.901Z,2.20
2022-09-07T05:57:03.348Z,2.08
2022-09-07T05:59:30.921Z,2.92
2022-09-07T06:01:58.470Z,2.40
2022-09-07T06:04:26.160Z,2.22
2022-09-07T06:12:30.166Z,1.90
2022-09-07T06:14:57.741Z,2.40
2022-09-07T06:17:25.281Z,2.22
2022-09-07T06:19:52.825Z,2.20
2022-09-07T06:22:21.796Z,2.10
2022-09-07T06:24:49.362Z,2.10
2022-09-07T06:27:16.896Z,2.20
2022-09-07T06:29:44.438Z,2.10
2022-09-07T06:34:59.571Z,2.20
2022-09-07T06:37:28.454Z,2.35
2022-09-07T06:39:56.092Z,2.65
2022-09-07T06:42:23.797Z,2.45
2022-09-07T06:44:51.372Z,2.60
2022-09-07T06:47:18.888Z,2.15
2022-09-07T06:49:46.454Z,2.15
2022-09-07T06:52:13.987Z,2.08
2022-09-07T06:57:26.998Z,2.50
2022-09-07T06:59:54.526Z,2.40
2022-09-07T07:02:22.266Z,2.50
2022-09-07T07:04:51.202Z,2.65
2022-09-07T07:07:18.881Z,2.50
2022-09-07T07:09:47.773Z,2.30
2022-09-07T07:14:52.429Z,2.60
2022-09-07T07:17:19.951Z,2.90
2022-09-07T07:19:47.554Z,2.60
2022-09-07T07:25:04.969Z,3.15
2022-09-07T07:27:32.751Z,3.80
2022-09-07T07:30:00.332Z,2.80
2022-09-07T07:32:27.886Z,3.03
2022-09-07T07:34:55.373Z,2.70
2022-09-07T07:37:27.778Z,2.80
2022-09-07T07:42:45.611Z,2.95
2022-09-07T07:48:01.811Z,2.60
2022-09-07T07:50:31.294Z,3.15
2022-09-07T07:55:50.998Z,2.50
2022-09-07T07:58:20.413Z,2.60
2022-09-07T08:00:54.862Z,2.42
2022-09-07T08:03:23.542Z,2.58
2022-09-07T08:05:51.484Z,2.67
2022-09-07T08:08:19.302Z,2.50
2022-09-07T08:10:47.887Z,2.10
2022-09-07T08:13:15.600Z,2.08
2022-09-07T08:15:46.084Z,2.13
2022-09-07T08:18:14.219Z,2.20
2022-09-07T08:20:41.845Z,2.03
2022-09-07T08:23:10.824Z,2.10
2022-09-07T08:25:38.584Z,2.13
2022-09-07T08:28:06.588Z,2.30
2022-09-07T08:30:34.140Z,2.40
2022-09-07T08:33:03.208Z,2.10
2022-09-07T08:35:30.687Z,2.45
2022-09-07T08:37:58.473Z,2.28
2022-09-07T08:40:29.075Z,2.45
2022-09-07T08:43:08.619Z,2.05
2022-09-07T08:45:40.777Z,2.20
2022-09-07T08:48:15.627Z,2.22
2022-09-07T08:50:55.936Z,2.20
2022-09-07T08:53:24.996Z,2.38
2022-09-07T08:55:56.182Z,2.50
2022-09-07T08:58:48.116Z,2.55
2022-09-07T09:04:20.011Z,2.60
2022-09-07T09:07:02.706Z,2.72
2022-09-07T09:09:40.731Z,2.80
2022-09-07T09:12:18.645Z,3.10
2022-09-07T09:15:04.439Z,3.05
2022-09-07T09:17:36.562Z,2.80
2022-09-07T09:20:15.865Z,2.80
2022-09-07T09:22:46.654Z,2.88
2022-09-07T09:25:20.780Z,2.92
2022-09-07T09:27:50.801Z,2.83
2022-09-07T09:30:20.570Z,2.67
2022-09-07T09:32:50.571Z,3.35
2022-09-07T09:35:26.769Z,3.28
2022-09-07T09:37:54.309Z,3.55
2022-09-07T09:40:25.943Z,3.15
2022-09-07T09:43:04.435Z,3.30
2022-09-07T09:48:32.340Z,3.13
2022-09-07T09:53:56.727Z,3.10
2022-09-07T09:56:37.330Z,3.63
2022-09-07T10:05:26.826Z,3.25
2022-09-07T10:07:56.297Z,4.05
2022-09-07T10:10:24.186Z,3.42
2022-09-07T10:12:55.056Z,3.75
2022-09-07T10:15:41.245Z,3.58
2022-09-07T10:18:21.136Z,3.03
2022-09-07T10:20:48.770Z,2.92
2022-09-07T10:23:25.840Z,2.90
2022-09-07T10:25:53.527Z,3.03
2022-09-07T10:28:23.842Z,3.05
2022-09-07T10:31:04.133Z,3.05
2022-09-07T10:34:25.752Z,2.97
2022-09-07T10:36:39.335Z,2.58
2022-09-07T10:39:15.067Z,2.83
2022-09-07T10:41:53.874Z,3.03
2022-09-07T10:44:29.424Z,2.75
2022-09-07T10:47:03.872Z,2.60
2022-09-07T10:52:15.581Z,3.60
2022-09-07T10:54:54.714Z,2.80
2022-09-07T10:57:34.302Z,2.60
2022-09-07T11:00:09.287Z,2.90
2022-09-07T11:05:50.092Z,3.08
2022-09-07T11:08:34.320Z,2.88
2022-09-07T11:14:19.116Z,2.50
2022-09-07T11:16:52.803Z,2.15
2022-09-07T11:19:38.723Z,2.67
2022-09-07T11:22:22.009Z,2.20
2022-09-07T11:27:48.716Z,2.15
2022-09-07T11:30:21.577Z,2.30
2022-09-07T11:32:59.591Z,2.17
2022-09-07T11:35:36.090Z,2.20
2022-09-07T11:38:13.856Z,1.75
2022-09-07T11:40:49.477Z,2.08
2022-09-07T11:43:23.497Z,2.08
2022-09-07T11:45:55.562Z,1.90
2022-09-07T11:48:30.420Z,2.25
2022-09-07T11:51:01.922Z,2.40
2022-09-07T11:53:32.858Z,2.20
2022-09-07T11:56:04.833Z,2.47
2022-09-07T11:58:50.225Z,2.28
2022-09-07T12:01:31.522Z,2.40
2022-09-07T12:04:16.451Z,2.42
2022-09-07T12:07:22.913Z,2.28
2022-09-07T12:10:15.533Z,1.95
2022-09-07T12:13:12.267Z,2.00
2022-09-07T12:15:48.937Z,1.95
2022-09-07T12:18:27.534Z,1.95
2022-09-07T12:20:55.159Z,2.20
2022-09-07T12:23:28.611Z,1.98
2022-09-07T12:26:39.554Z,2.13
2022-09-07T12:29:21.091Z,2.38
2022-09-07T12:32:07.298Z,2.22
2022-09-07T12:34:50.363Z,1.92
2022-09-07T12:37:38.715Z,2.03
2022-09-07T12:41:00.983Z,2.00
2022-09-07T12:43:34.874Z,2.00
2022-09-07T12:46:02.859Z,2.20
2022-09-07T12:48:49.472Z,2.30
2022-09-07T12:54:28.462Z,2.00
2022-09-07T13:00:02.868Z,2.28
2022-09-07T13:02:50.903Z,2.20
2022-09-07T13:05:36.426Z,2.15
2022-09-07T13:08:18.322Z,2.55
2022-09-07T13:10:47.141Z,2.50
2022-09-07T13:14:02.595Z,2.58
2022-09-07T13:16:28.548Z,2.42
2022-09-07T13:18:56.477Z,2.47
2022-09-07T13:21:50.013Z,2.88
2022-09-07T13:24:55.125Z,2.50
2022-09-07T13:27:33.798Z,2.80
2022-09-07T13:30:05.293Z,2.78
2022-09-07T13:35:24.477Z,3.30
2022-09-07T13:37:57.145Z,2.90
2022-09-07T13:40:27.450Z,2.83
2022-09-07T13:42:57.353Z,2.97
2022-09-07T13:45:31.102Z,3.20
2022-09-07T13:48:06.422Z,3.42
2022-09-07T13:50:45.088Z,3.25
2022-09-07T13:53:27.416Z,3.20
2022-09-07T13:56:05.376Z,3.40
2022-09-07T13:58:36.361Z,3.15
2022-09-07T14:01:06.720Z,3.90
2022-09-07T14:03:40.139Z,3.45
2022-09-07T14:06:33.079Z,2.88
2022-09-07T14:09:04.748Z,2.95
2022-09-07T14:11:41.321Z,3.20
2022-09-07T14:14:23.140Z,2.92
2022-09-07T14:16:55.534Z,2.90
2022-09-07T14:19:25.921Z,3.28
2022-09-07T14:22:01.949Z,3.28
2022-09-07T14:24:33.426Z,3.95
2022-09-07T14:27:01.226Z,2.53
2022-09-07T14:29:31.372Z,3.05
2022-09-07T14:32:01.049Z,2.80
2022-09-07T14:34:32.228Z,3.30
2022-09-07T14:37:04.573Z,3.10
2022-09-07T14:47:07.632Z,2.60
2022-09-07T14:49:35.805Z,2.53
2022-09-07T14:52:03.990Z,2.60
2022-09-07T14:54:34.795Z,2.92
2022-09-07T14:57:05.819Z,3.53
2022-09-07T14:59:39.670Z,3.30
2022-09-07T15:02:27.033Z,3.10
2022-09-07T15:05:23.428Z,3.45
2022-09-07T15:07:53.118Z,3.28
2022-09-07T15:10:41.961Z,3.03
2022-09-07T15:13:26.131Z,3.00
2022-09-07T15:15:58.903Z,2.67
2022-09-07T15:18:51.646Z,2.88
2022-09-07T15:21:19.759Z,2.67
2022-09-07T15:23:50.017Z,3.17
2022-09-07T15:29:10.531Z,3.00
2022-09-07T15:31:41.676Z,3.72
2022-09-07T15:34:14.172Z,3.10
2022-09-07T15:36:44.021Z,3.08
2022-09-07T15:39:17.486Z,3.45
2022-09-07T15:41:45.453Z,2.80
2022-09-07T15:44:13.910Z,2.60
2022-09-07T15:46:41.897Z,2.92
2022-09-07T15:49:10.326Z,3.03
2022-09-07T15:54:35.267Z,2.80
2022-09-07T15:59:52.365Z,2.40
2022-09-07T16:05:08.635Z,2.30
2022-09-07T16:10:25.237Z,2.60
2022-09-07T16:13:01.975Z,2.53
2022-09-07T16:15:30.232Z,2.40
2022-09-07T16:17:58.436Z,2.30
2022-09-07T16:20:26.143Z,2.55
2022-09-07T16:25:43.921Z,2.40
2022-09-07T16:28:11.896Z,2.30
2022-09-07T16:30:41.307Z,2.60
2022-09-07T16:33:09.191Z,2.42
2022-09-07T16:35:36.727Z,4.00
2022-09-07T16:40:53.391Z,2.47
2022-09-07T16:43:21.498Z,2.13
2022-09-07T16:46:04.784Z,2.42
2022-09-07T16:48:34.016Z,2.80
2022-09-07T16:51:02.786Z,2.35
2022-09-07T16:53:34.214Z,2.33
2022-09-07T16:56:02.950Z,2.33
2022-09-07T16:58:35.708Z,2.70
2022-09-07T17:01:04.688Z,2.45
2022-09-07T17:03:32.371Z,2.40
2022-09-07T17:06:00.889Z,2.25
2022-09-07T17:08:28.632Z,2.50
2022-09-07T17:11:01.168Z,2.45
2022-09-07T17:13:28.768Z,2.50
2022-09-07T17:16:02.109Z,2.58
2022-09-07T17:21:19.678Z,2.40
2022-09-07T17:23:54.300Z,2.30
2022-09-07T17:26:27.141Z,2.65
2022-09-07T17:28:56.552Z,2.50
2022-09-07T17:34:17.776Z,2.35
2022-09-07T17:36:45.339Z,2.70
2022-09-07T17:39:15.953Z,2.38
2022-09-07T17:41:46.257Z,2.35
2022-09-07T17:44:13.804Z,2.40
2022-09-07T17:46:41.516Z,2.50
2022-09-07T17:49:12.220Z,2.67
2022-09-07T17:51:40.402Z,2.47
2022-09-07T17:54:10.835Z,2.30
2022-09-07T17:56:39.648Z,2.50
2022-09-07T18:01:57.051Z,2.90
2022-09-07T18:04:25.037Z,3.22
2022-09-07T18:06:53.888Z,3.10
2022-09-07T18:09:21.690Z,2.80
2022-09-07T18:11:50.092Z,3.08
2022-09-07T18:14:19.997Z,2.70
2022-09-07T18:16:49.806Z,3.40
2022-09-07T18:19:18.716Z,2.70
2022-09-07T18:21:47.637Z,2.70
2022-09-07T18:24:17.535Z,3.08
2022-09-07T18:26:52.042Z,2.72
2022-09-07T18:29:29.371Z,2.95
2022-09-07T18:31:59.910Z,2.95
2022-09-07T18:34:28.671Z,2.60
2022-09-07T18:36:57.107Z,2.58
2022-09-07T18:39:24.775Z,2.85
2022-09-07T18:41:53.339Z,2.83
2022-09-07T18:47:21.137Z,2.88
2022-09-07T18:49:50.746Z,3.00
2022-09-07T18:55:07.852Z,2.60
2022-09-07T18:57:36.514Z,3.17
2022-09-07T19:00:07.262Z,2.63
2022-09-07T19:02:35.775Z,2.60
2022-09-07T19:07:51.638Z,2.80
2022-09-07T19:10:19.167Z,3.22
2022-09-07T19:12:46.692Z,2.60
2022-09-07T19:15:15.972Z,2.63
2022-09-07T19:17:43.691Z,2.85
2022-09-07T19:20:11.474Z,2.83
2022-09-07T19:22:39.257Z,3.05
2022-09-07T19:25:07.248Z,2.92
2022-09-07T19:27:34.746Z,2.70
2022-09-07T19:30:02.435Z,3.00
2022-09-07T19:32:31.621Z,2.80
2022-09-07T19:34:59.227Z,2.92
2022-09-07T19:37:28.824Z,2.80
2022-09-07T19:39:56.786Z,3.15
2022-09-07T19:42:24.985Z,3.85
2022-09-07T19:44:52.929Z,3.25
2022-09-07T19:47:21.146Z,3.17
2022-09-07T19:49:50.064Z,2.80
2022-09-07T19:52:17.560Z,2.92
2022-09-07T19:54:45.595Z,3.08
2022-09-07T19:57:13.079Z,3.10
2022-09-07T19:59:40.587Z,3.28
2022-09-07T20:02:09.701Z,3.10
2022-09-07T20:04:37.245Z,2.80
2022-09-07T20:07:06.503Z,3.20
2022-09-07T20:09:34.034Z,3.33
2022-09-07T20:12:03.649Z,3.35
2022-09-07T20:14:31.172Z,4.28
2022-09-07T20:16:58.666Z,3.55
2022-09-07T20:19:26.294Z,3.50
2022-09-07T20:21:55.572Z,4.05
2022-09-07T20:24:24.719Z,3.67
2022-09-07T20:26:52.244Z,3.70
2022-09-07T20:29:28.532Z,3.88
2022-09-07T20:31:57.178Z,4.03
2022-09-07T20:34:24.722Z,3.90
2022-09-07T20:36:52.911Z,4.00
2022-09-07T20:39:21.530Z,4.07
2022-09-07T20:41:50.546Z,4.13
2022-09-07T20:44:18.408Z,4.50
2022-09-07T20:46:46.077Z,4.10
2022-09-07T20:49:13.707Z,4.20
2022-09-07T20:51:41.213Z,4.63
2022-09-07T20:54:08.966Z,4.85
2022-09-07T20:56:36.623Z,4.75
2022-09-07T20:59:05.491Z,4.90
2022-09-07T21:01:34.979Z,4.53
2022-09-07T21:04:03.068Z,4.25
2022-09-07T21:06:32.604Z,4.40
2022-09-07T21:09:00.794Z,4.90
2022-09-07T21:11:30.165Z,4.75
2022-09-07T21:13:58.792Z,4.40
2022-09-07T21:16:28.903Z,5.20
2022-09-07T21:18:58.848Z,5.07
2022-09-07T21:21:27.682Z,5.30
2022-09-07T21:23:56.728Z,5.30
2022-09-07T21:26:25.000Z,5.18
2022-09-07T21:28:56.942Z,5.60
2022-09-07T21:31:25.152Z,5.57
2022-09-07T21:33:56.458Z,5.85
2022-09-07T21:36:24.649Z,5.15
2022-09-07T21:38:52.788Z,5.50
2022-09-07T21:41:22.367Z,5.32
2022-09-07T21:43:49.982Z,5.95
2022-09-07T21:46:19.585Z,5.40
2022-09-07T21:48:47.506Z,5.68
2022-09-07T21:51:17.251Z,5.32
2022-09-07T21:53:45.353Z,5.15
2022-09-07T21:56:14.936Z,5.90
2022-09-07T21:58:43.576Z,5.50
2022-09-07T22:01:12.660Z,5.57
2022-09-07T22:03:40.606Z,5.45
2022-09-07T22:06:09.714Z,5.90
2022-09-07T22:08:40.685Z,6.75
2022-09-07T22:11:10.391Z,6.57
2022-09-07T22:13:38.684Z,6.57
2022-09-07T22:16:07.986Z,6.90
2022-09-07T22:18:38.046Z,6.70
2022-09-07T22:21:07.695Z,6.95
2022-09-07T22:23:39.620Z,7.07
2022-09-07T22:26:08.733Z,6.78
2022-09-07T22:28:37.665Z,6.90
2022-09-07T22:31:13.144Z,7.13
2022-09-07T22:33:41.233Z,6.80
2022-09-07T22:36:14.339Z,6.82
2022-09-07T22:38:44.510Z,7.10
2022-09-07T22:41:14.130Z,5.75
2022-09-07T22:43:42.548Z,5.10
2022-09-07T22:46:11.107Z,5.25
2022-09-07T22:48:39.346Z,5.68
2022-09-07T22:51:07.345Z,5.78
2022-09-07T22:53:37.006Z,6.72
2022-09-07T22:56:09.277Z,6.93
2022-09-07T22:58:37.155Z,7.00
2022-09-07T23:01:05.995Z,7.30
2022-09-07T23:03:35.641Z,6.95
2022-09-07T23:06:04.084Z,7.05
2022-09-07T23:08:31.905Z,7.15
2022-09-07T23:11:04.414Z,7.10
2022-09-07T23:13:33.512Z,7.22
2022-09-07T23:16:05.527Z,8.13
2022-09-07T23:18:33.750Z,6.82
2022-09-07T23:21:02.222Z,6.80
2022-09-07T23:23:30.481Z,7.20
2022-09-07T23:25:58.017Z,7.95
2022-09-07T23:28:25.523Z,6.72
2022-09-07T23:30:54.939Z,7.88
2022-09-07T23:33:22.472Z,6.97
2022-09-07T23:35:57.326Z,7.43
2022-09-07T23:40:52.804Z,6.70
2022-09-07T23:43:20.378Z,6.28
2022-09-07T23:45:48.059Z,6.40
2022-09-07T23:48:17.822Z,6.85
2022-09-07T23:50:46.346Z,6.30
2022-09-07T23:53:14.260Z,5.90
2022-09-07T23:55:42.190Z,6.55
2022-09-07T23:58:10.241Z,5.55
